sensor_id;sensor_type;location;lat;lon;timestamp;P1;durP1;ratioP1;P2;durP2;ratioP2
18867;SDS011;9563;49.240;9.088;2022-11-23T00:01:26;9.53;;;3.57;;
18867;SDS011;9563;49.240;9.088;2022-11-23T00:03:54;5.73;;;3.40;;
18867;SDS011;9563;49.240;9.088;2022-11-23T00:06:23;6.37;;;3.00;;
18867;SDS011;9563;49.240;9.088;2022-11-23T00:08:51;8.67;;;3.13;;
18867;SDS011;9563;49.240;9.088;2022-11-23T00:11:19;6.90;;;3.13;;
18867;SDS011;9563;49.240;9.088;2022-11-23T00:13:47;5.70;;;2.70;;
18867;SDS011;9563;49.240;9.088;2022-11-23T00:16:18;6.70;;;2.90;;
18867;SDS011;9563;49.240;9.088;2022-11-23T00:18:46;6.77;;;2.50;;
18867;SDS011;9563;49.240;9.088;2022-11-23T00:21:16;7.67;;;3.20;;
18867;SDS011;9563;49.240;9.088;2022-11-23T00:23:43;6.77;;;2.77;;
18867;SDS011;9563;49.240;9.088;2022-11-23T00:26:11;37.80;;;8.63;;
18867;SDS011;9563;49.240;9.088;2022-11-23T00:28:39;51.20;;;13.23;;
18867;SDS011;9563;49.240;9.088;2022-11-23T00:31:07;41.53;;;12.03;;
18867;SDS011;9563;49.240;9.088;2022-11-23T00:33:36;46.57;;;13.47;;
18867;SDS011;9563;49.240;9.088;2022-11-23T00:36:04;73.53;;;18.13;;
18867;SDS011;9563;49.240;9.088;2022-11-23T00:38:32;51.30;;;14.27;;
18867;SDS011;9563;49.240;9.088;2022-11-23T00:41:00;25.57;;;7.63;;
18867;SDS011;9563;49.240;9.088;2022-11-23T00:43:28;16.33;;;5.97;;
18867;SDS011;9563;49.240;9.088;2022-11-23T00:46:06;10.53;;;4.90;;
18867;SDS011;9563;49.240;9.088;2022-11-23T00:48:34;8.53;;;3.40;;
18867;SDS011;9563;49.240;9.088;2022-11-23T00:51:03;8.80;;;3.40;;
18867;SDS011;9563;49.240;9.088;2022-11-23T00:53:31;8.83;;;3.80;;
18867;SDS011;9563;49.240;9.088;2022-11-23T00:55:59;6.53;;;3.00;;
18867;SDS011;9563;49.240;9.088;2022-11-23T00:58:26;7.60;;;3.33;;
18867;SDS011;9563;49.240;9.088;2022-11-23T01:01:00;8.80;;;3.90;;
18867;SDS011;9563;49.240;9.088;2022-11-23T01:03:29;9.37;;;3.43;;
18867;SDS011;9563;49.240;9.088;2022-11-23T01:06:02;11.40;;;3.60;;
18867;SDS011;9563;49.240;9.088;2022-11-23T01:08:30;7.67;;;3.90;;
18867;SDS011;9563;49.240;9.088;2022-11-23T01:10:58;7.43;;;3.83;;
18867;SDS011;9563;49.240;9.088;2022-11-23T01:13:26;10.60;;;4.50;;
18867;SDS011;9563;49.240;9.088;2022-11-23T01:15:53;6.23;;;3.67;;
18867;SDS011;9563;49.240;9.088;2022-11-23T01:18:20;7.67;;;3.40;;
18867;SDS011;9563;49.240;9.088;2022-11-23T01:20:47;9.37;;;3.70;;
18867;SDS011;9563;49.240;9.088;2022-11-23T01:23:15;6.83;;;3.20;;
18867;SDS011;9563;49.240;9.088;2022-11-23T01:25:42;8.60;;;3.93;;
18867;SDS011;9563;49.240;9.088;2022-11-23T01:28:09;5.70;;;3.27;;
18867;SDS011;9563;49.240;9.088;2022-11-23T01:30:36;7.93;;;3.23;;
18867;SDS011;9563;49.240;9.088;2022-11-23T01:33:03;7.97;;;2.57;;
18867;SDS011;9563;49.240;9.088;2022-11-23T01:35:30;7.03;;;3.20;;
18867;SDS011;9563;49.240;9.088;2022-11-23T01:37:57;6.93;;;2.50;;
18867;SDS011;9563;49.240;9.088;2022-11-23T01:40:25;6.80;;;2.30;;
18867;SDS011;9563;49.240;9.088;2022-11-23T01:42:54;4.60;;;2.53;;
18867;SDS011;9563;49.240;9.088;2022-11-23T01:45:26;5.03;;;2.23;;
18867;SDS011;9563;49.240;9.088;2022-11-23T01:47:59;6.83;;;2.80;;
18867;SDS011;9563;49.240;9.088;2022-11-23T01:50:27;6.60;;;2.30;;
18867;SDS011;9563;49.240;9.088;2022-11-23T01:52:54;4.57;;;2.20;;
18867;SDS011;9563;49.240;9.088;2022-11-23T01:55:22;5.03;;;2.50;;
18867;SDS011;9563;49.240;9.088;2022-11-23T01:57:52;5.70;;;2.23;;
18867;SDS011;9563;49.240;9.088;2022-11-23T02:00:20;6.17;;;2.10;;
18867;SDS011;9563;49.240;9.088;2022-11-23T02:02:50;6.47;;;2.67;;
18867;SDS011;9563;49.240;9.088;2022-11-23T02:05:20;8.17;;;3.00;;
18867;SDS011;9563;49.240;9.088;2022-11-23T02:07:52;6.20;;;2.40;;
18867;SDS011;9563;49.240;9.088;2022-11-23T02:10:20;7.70;;;2.83;;
18867;SDS011;9563;49.240;9.088;2022-11-23T02:12:48;8.37;;;2.93;;
18867;SDS011;9563;49.240;9.088;2022-11-23T02:15:16;8.50;;;2.40;;
18867;SDS011;9563;49.240;9.088;2022-11-23T02:17:43;7.43;;;2.80;;
18867;SDS011;9563;49.240;9.088;2022-11-23T02:20:12;4.73;;;2.30;;
18867;SDS011;9563;49.240;9.088;2022-11-23T02:22:42;8.30;;;2.40;;
18867;SDS011;9563;49.240;9.088;2022-11-23T02:25:18;4.73;;;2.10;;
18867;SDS011;9563;49.240;9.088;2022-11-23T02:27:54;4.27;;;2.20;;
18867;SDS011;9563;49.240;9.088;2022-11-23T02:30:22;3.90;;;2.20;;
18867;SDS011;9563;49.240;9.088;2022-11-23T02:32:49;9.70;;;2.50;;
18867;SDS011;9563;49.240;9.088;2022-11-23T02:35:16;5.97;;;2.40;;
18867;SDS011;9563;49.240;9.088;2022-11-23T02:37:43;8.13;;;3.20;;
18867;SDS011;9563;49.240;9.088;2022-11-23T02:40:11;7.43;;;3.67;;
18867;SDS011;9563;49.240;9.088;2022-11-23T02:42:46;9.33;;;3.73;;
18867;SDS011;9563;49.240;9.088;2022-11-23T02:45:17;10.37;;;3.43;;
18867;SDS011;9563;49.240;9.088;2022-11-23T02:47:52;6.53;;;2.80;;
18867;SDS011;9563;49.240;9.088;2022-11-23T02:50:19;11.93;;;2.60;;
18867;SDS011;9563;49.240;9.088;2022-11-23T02:52:46;5.43;;;2.70;;
18867;SDS011;9563;49.240;9.088;2022-11-23T02:55:13;9.13;;;2.97;;
18867;SDS011;9563;49.240;9.088;2022-11-23T02:57:40;4.40;;;2.40;;
18867;SDS011;9563;49.240;9.088;2022-11-23T03:00:07;3.33;;;2.23;;
18867;SDS011;9563;49.240;9.088;2022-11-23T03:02:37;4.53;;;2.37;;
18867;SDS011;9563;49.240;9.088;2022-11-23T03:05:04;3.60;;;2.07;;
18867;SDS011;9563;49.240;9.088;2022-11-23T03:07:31;3.07;;;1.90;;
18867;SDS011;9563;49.240;9.088;2022-11-23T03:09:58;4.93;;;2.00;;
18867;SDS011;9563;49.240;9.088;2022-11-23T03:12:25;7.27;;;2.67;;
18867;SDS011;9563;49.240;9.088;2022-11-23T03:14:52;6.83;;;2.10;;
18867;SDS011;9563;49.240;9.088;2022-11-23T03:17:19;7.53;;;2.50;;
18867;SDS011;9563;49.240;9.088;2022-11-23T03:19:47;8.50;;;2.67;;
18867;SDS011;9563;49.240;9.088;2022-11-23T03:22:14;6.93;;;2.50;;
18867;SDS011;9563;49.240;9.088;2022-11-23T03:24:41;6.10;;;2.40;;
18867;SDS011;9563;49.240;9.088;2022-11-23T03:27:08;7.17;;;2.40;;
18867;SDS011;9563;49.240;9.088;2022-11-23T03:29:35;6.90;;;2.80;;
18867;SDS011;9563;49.240;9.088;2022-11-23T03:32:02;9.20;;;2.43;;
18867;SDS011;9563;49.240;9.088;2022-11-23T03:34:29;12.80;;;3.17;;
18867;SDS011;9563;49.240;9.088;2022-11-23T03:36:57;4.53;;;2.30;;
18867;SDS011;9563;49.240;9.088;2022-11-23T03:39:24;5.30;;;2.00;;
18867;SDS011;9563;49.240;9.088;2022-11-23T03:41:51;8.47;;;2.47;;
18867;SDS011;9563;49.240;9.088;2022-11-23T03:44:18;3.97;;;1.73;;
18867;SDS011;9563;49.240;9.088;2022-11-23T03:46:45;5.20;;;1.93;;
18867;SDS011;9563;49.240;9.088;2022-11-23T03:49:11;2.93;;;1.87;;
18867;SDS011;9563;49.240;9.088;2022-11-23T03:51:38;8.93;;;1.87;;
18867;SDS011;9563;49.240;9.088;2022-11-23T03:54:07;12.23;;;2.17;;
18867;SDS011;9563;49.240;9.088;2022-11-23T03:56:34;3.10;;;1.50;;
18867;SDS011;9563;49.240;9.088;2022-11-23T03:59:01;5.03;;;1.40;;
18867;SDS011;9563;49.240;9.088;2022-11-23T04:01:28;4.83;;;1.97;;
18867;SDS011;9563;49.240;9.088;2022-11-23T04:03:55;8.57;;;1.87;;
18867;SDS011;9563;49.240;9.088;2022-11-23T04:06:22;3.93;;;2.00;;
18867;SDS011;9563;49.240;9.088;2022-11-23T04:08:49;5.57;;;1.80;;
18867;SDS011;9563;49.240;9.088;2022-11-23T04:11:17;4.30;;;1.77;;
18867;SDS011;9563;49.240;9.088;2022-11-23T04:13:44;2.63;;;1.33;;
18867;SDS011;9563;49.240;9.088;2022-11-23T04:16:11;5.20;;;1.70;;
18867;SDS011;9563;49.240;9.088;2022-11-23T04:18:38;5.57;;;1.73;;
18867;SDS011;9563;49.240;9.088;2022-11-23T04:21:05;5.77;;;1.60;;
18867;SDS011;9563;49.240;9.088;2022-11-23T04:23:32;3.10;;;1.70;;
18867;SDS011;9563;49.240;9.088;2022-11-23T04:25:58;4.43;;;1.53;;
18867;SDS011;9563;49.240;9.088;2022-11-23T04:28:27;4.77;;;1.60;;
18867;SDS011;9563;49.240;9.088;2022-11-23T04:30:54;5.07;;;1.60;;
18867;SDS011;9563;49.240;9.088;2022-11-23T04:33:22;5.37;;;1.90;;
18867;SDS011;9563;49.240;9.088;2022-11-23T04:35:49;4.03;;;2.00;;
18867;SDS011;9563;49.240;9.088;2022-11-23T04:38:16;3.80;;;1.90;;
18867;SDS011;9563;49.240;9.088;2022-11-23T04:40:45;3.53;;;1.70;;
18867;SDS011;9563;49.240;9.088;2022-11-23T04:43:12;3.30;;;1.40;;
18867;SDS011;9563;49.240;9.088;2022-11-23T04:45:40;7.70;;;1.80;;
18867;SDS011;9563;49.240;9.088;2022-11-23T04:48:07;6.20;;;1.67;;
18867;SDS011;9563;49.240;9.088;2022-11-23T04:50:34;7.13;;;1.43;;
18867;SDS011;9563;49.240;9.088;2022-11-23T04:53:01;2.73;;;1.40;;
18867;SDS011;9563;49.240;9.088;2022-11-23T04:55:29;6.30;;;1.73;;
18867;SDS011;9563;49.240;9.088;2022-11-23T04:57:55;4.97;;;1.63;;
18867;SDS011;9563;49.240;9.088;2022-11-23T05:00:22;4.87;;;1.77;;
18867;SDS011;9563;49.240;9.088;2022-11-23T05:02:51;7.23;;;1.57;;
18867;SDS011;9563;49.240;9.088;2022-11-23T05:05:18;4.30;;;1.60;;
18867;SDS011;9563;49.240;9.088;2022-11-23T05:07:45;9.40;;;1.63;;
18867;SDS011;9563;49.240;9.088;2022-11-23T05:10:12;7.87;;;1.97;;
18867;SDS011;9563;49.240;9.088;2022-11-23T05:12:39;8.27;;;1.87;;
18867;SDS011;9563;49.240;9.088;2022-11-23T05:15:06;5.47;;;1.57;;
18867;SDS011;9563;49.240;9.088;2022-11-23T05:17:33;4.63;;;1.60;;
18867;SDS011;9563;49.240;9.088;2022-11-23T05:20:01;6.87;;;1.70;;
18867;SDS011;9563;49.240;9.088;2022-11-23T05:22:29;7.50;;;1.90;;
18867;SDS011;9563;49.240;9.088;2022-11-23T05:24:56;7.43;;;1.33;;
18867;SDS011;9563;49.240;9.088;2022-11-23T05:27:22;5.23;;;2.00;;
18867;SDS011;9563;49.240;9.088;2022-11-23T05:29:49;5.43;;;1.70;;
18867;SDS011;9563;49.240;9.088;2022-11-23T05:32:16;5.30;;;1.87;;
18867;SDS011;9563;49.240;9.088;2022-11-23T05:34:43;7.80;;;1.53;;
18867;SDS011;9563;49.240;9.088;2022-11-23T05:37:11;3.10;;;1.57;;
18867;SDS011;9563;49.240;9.088;2022-11-23T05:39:38;6.63;;;2.13;;
18867;SDS011;9563;49.240;9.088;2022-11-23T05:42:05;7.23;;;1.73;;
18867;SDS011;9563;49.240;9.088;2022-11-23T05:44:32;6.63;;;1.97;;
18867;SDS011;9563;49.240;9.088;2022-11-23T05:46:59;3.57;;;1.77;;
18867;SDS011;9563;49.240;9.088;2022-11-23T05:49:26;7.23;;;2.03;;
18867;SDS011;9563;49.240;9.088;2022-11-23T05:51:52;6.80;;;2.10;;
18867;SDS011;9563;49.240;9.088;2022-11-23T05:54:21;6.00;;;1.77;;
18867;SDS011;9563;49.240;9.088;2022-11-23T05:56:48;5.03;;;1.83;;
18867;SDS011;9563;49.240;9.088;2022-11-23T05:59:15;5.33;;;1.80;;
18867;SDS011;9563;49.240;9.088;2022-11-23T06:01:41;8.47;;;2.53;;
18867;SDS011;9563;49.240;9.088;2022-11-23T06:04:08;9.90;;;2.07;;
18867;SDS011;9563;49.240;9.088;2022-11-23T06:06:37;10.23;;;2.10;;
18867;SDS011;9563;49.240;9.088;2022-11-23T06:09:04;8.77;;;1.63;;
18867;SDS011;9563;49.240;9.088;2022-11-23T06:11:32;9.63;;;1.90;;
18867;SDS011;9563;49.240;9.088;2022-11-23T06:13:59;4.33;;;1.57;;
18867;SDS011;9563;49.240;9.088;2022-11-23T06:16:26;7.43;;;2.20;;
18867;SDS011;9563;49.240;9.088;2022-11-23T06:18:53;7.50;;;1.70;;
18867;SDS011;9563;49.240;9.088;2022-11-23T06:21:20;6.53;;;2.10;;
18867;SDS011;9563;49.240;9.088;2022-11-23T06:23:46;6.53;;;1.87;;
18867;SDS011;9563;49.240;9.088;2022-11-23T06:26:14;4.53;;;1.77;;
18867;SDS011;9563;49.240;9.088;2022-11-23T06:28:42;6.73;;;2.17;;
18867;SDS011;9563;49.240;9.088;2022-11-23T06:31:09;9.03;;;2.63;;
18867;SDS011;9563;49.240;9.088;2022-11-23T06:33:36;8.37;;;2.27;;
18867;SDS011;9563;49.240;9.088;2022-11-23T06:36:03;5.17;;;1.87;;
18867;SDS011;9563;49.240;9.088;2022-11-23T06:38:30;3.80;;;1.73;;
18867;SDS011;9563;49.240;9.088;2022-11-23T06:40:57;6.17;;;1.97;;
18867;SDS011;9563;49.240;9.088;2022-11-23T06:43:25;5.07;;;1.90;;
18867;SDS011;9563;49.240;9.088;2022-11-23T06:45:53;9.20;;;2.23;;
18867;SDS011;9563;49.240;9.088;2022-11-23T06:48:20;4.90;;;1.70;;
18867;SDS011;9563;49.240;9.088;2022-11-23T06:50:48;9.50;;;1.97;;
18867;SDS011;9563;49.240;9.088;2022-11-23T06:53:15;4.03;;;1.70;;
18867;SDS011;9563;49.240;9.088;2022-11-23T06:55:43;5.33;;;2.40;;
18867;SDS011;9563;49.240;9.088;2022-11-23T06:58:10;7.07;;;2.20;;
18867;SDS011;9563;49.240;9.088;2022-11-23T07:00:37;6.23;;;2.63;;
18867;SDS011;9563;49.240;9.088;2022-11-23T07:03:05;7.13;;;1.90;;
18867;SDS011;9563;49.240;9.088;2022-11-23T07:05:32;4.47;;;2.30;;
18867;SDS011;9563;49.240;9.088;2022-11-23T07:07:59;6.03;;;1.90;;
18867;SDS011;9563;49.240;9.088;2022-11-23T07:10:26;4.80;;;1.97;;
18867;SDS011;9563;49.240;9.088;2022-11-23T07:12:53;5.30;;;1.70;;
18867;SDS011;9563;49.240;9.088;2022-11-23T07:15:20;5.07;;;1.60;;
18867;SDS011;9563;49.240;9.088;2022-11-23T07:17:47;7.47;;;2.40;;
18867;SDS011;9563;49.240;9.088;2022-11-23T07:20:16;5.47;;;2.07;;
18867;SDS011;9563;49.240;9.088;2022-11-23T07:22:42;7.33;;;1.97;;
18867;SDS011;9563;49.240;9.088;2022-11-23T07:25:09;7.33;;;2.03;;
18867;SDS011;9563;49.240;9.088;2022-11-23T07:27:40;6.70;;;2.10;;
18867;SDS011;9563;49.240;9.088;2022-11-23T07:30:08;9.60;;;3.50;;
18867;SDS011;9563;49.240;9.088;2022-11-23T07:32:35;3.63;;;2.47;;
18867;SDS011;9563;49.240;9.088;2022-11-23T07:35:02;6.20;;;2.90;;
18867;SDS011;9563;49.240;9.088;2022-11-23T07:37:31;5.57;;;2.50;;
18867;SDS011;9563;49.240;9.088;2022-11-23T07:39:58;7.37;;;2.30;;
18867;SDS011;9563;49.240;9.088;2022-11-23T07:42:25;5.47;;;2.00;;
18867;SDS011;9563;49.240;9.088;2022-11-23T07:44:52;6.07;;;2.67;;
18867;SDS011;9563;49.240;9.088;2022-11-23T07:47:19;13.57;;;2.80;;
18867;SDS011;9563;49.240;9.088;2022-11-23T07:49:46;3.83;;;2.27;;
18867;SDS011;9563;49.240;9.088;2022-11-23T07:52:13;9.23;;;3.53;;
18867;SDS011;9563;49.240;9.088;2022-11-23T07:54:41;13.03;;;6.53;;
18867;SDS011;9563;49.240;9.088;2022-11-23T07:57:09;13.17;;;7.43;;
18867;SDS011;9563;49.240;9.088;2022-11-23T07:59:35;16.70;;;6.67;;
18867;SDS011;9563;49.240;9.088;2022-11-23T08:02:03;11.10;;;5.77;;
18867;SDS011;9563;49.240;9.088;2022-11-23T08:04:30;10.43;;;4.20;;
18867;SDS011;9563;49.240;9.088;2022-11-23T08:06:57;7.67;;;2.53;;
18867;SDS011;9563;49.240;9.088;2022-11-23T08:09:24;5.60;;;2.23;;
18867;SDS011;9563;49.240;9.088;2022-11-23T08:11:53;7.17;;;2.57;;
18867;SDS011;9563;49.240;9.088;2022-11-23T08:14:20;6.00;;;2.70;;
18867;SDS011;9563;49.240;9.088;2022-11-23T08:16:47;7.23;;;2.23;;
18867;SDS011;9563;49.240;9.088;2022-11-23T08:19:15;6.23;;;2.50;;
18867;SDS011;9563;49.240;9.088;2022-11-23T08:21:42;7.20;;;2.17;;
18867;SDS011;9563;49.240;9.088;2022-11-23T08:24:09;6.23;;;2.00;;
18867;SDS011;9563;49.240;9.088;2022-11-23T08:26:37;6.07;;;2.03;;
18867;SDS011;9563;49.240;9.088;2022-11-23T08:29:06;10.83;;;1.90;;
18867;SDS011;9563;49.240;9.088;2022-11-23T08:31:32;6.07;;;2.10;;
18867;SDS011;9563;49.240;9.088;2022-11-23T08:33:59;4.57;;;1.43;;
18867;SDS011;9563;49.240;9.088;2022-11-23T08:36:26;10.27;;;1.90;;
18867;SDS011;9563;49.240;9.088;2022-11-23T08:38:53;5.20;;;1.60;;
18867;SDS011;9563;49.240;9.088;2022-11-23T08:41:20;5.10;;;1.63;;
18867;SDS011;9563;49.240;9.088;2022-11-23T08:43:47;4.17;;;1.60;;
18867;SDS011;9563;49.240;9.088;2022-11-23T08:46:17;7.70;;;2.00;;
18867;SDS011;9563;49.240;9.088;2022-11-23T08:48:44;8.53;;;1.90;;
18867;SDS011;9563;49.240;9.088;2022-11-23T08:51:11;6.17;;;1.93;;
18867;SDS011;9563;49.240;9.088;2022-11-23T08:53:38;5.43;;;1.53;;
18867;SDS011;9563;49.240;9.088;2022-11-23T08:56:05;7.57;;;2.03;;
18867;SDS011;9563;49.240;9.088;2022-11-23T08:58:33;4.73;;;1.90;;
18867;SDS011;9563;49.240;9.088;2022-11-23T09:01:00;10.73;;;1.63;;
18867;SDS011;9563;49.240;9.088;2022-11-23T09:03:29;7.83;;;1.87;;
18867;SDS011;9563;49.240;9.088;2022-11-23T09:05:58;9.37;;;2.47;;
18867;SDS011;9563;49.240;9.088;2022-11-23T09:08:25;8.07;;;1.97;;
18867;SDS011;9563;49.240;9.088;2022-11-23T09:10:52;8.17;;;1.90;;
18867;SDS011;9563;49.240;9.088;2022-11-23T09:13:19;14.47;;;2.17;;
18867;SDS011;9563;49.240;9.088;2022-11-23T09:15:46;12.63;;;1.77;;
18867;SDS011;9563;49.240;9.088;2022-11-23T09:18:13;7.47;;;1.43;;
18867;SDS011;9563;49.240;9.088;2022-11-23T09:20:41;11.63;;;1.60;;
18867;SDS011;9563;49.240;9.088;2022-11-23T09:23:08;5.73;;;1.73;;
18867;SDS011;9563;49.240;9.088;2022-11-23T09:25:35;9.43;;;1.97;;
18867;SDS011;9563;49.240;9.088;2022-11-23T09:28:02;12.93;;;1.90;;
18867;SDS011;9563;49.240;9.088;2022-11-23T09:30:29;8.67;;;1.93;;
18867;SDS011;9563;49.240;9.088;2022-11-23T09:32:56;5.97;;;1.80;;
18867;SDS011;9563;49.240;9.088;2022-11-23T09:35:23;14.13;;;2.10;;
18867;SDS011;9563;49.240;9.088;2022-11-23T09:37:55;6.13;;;2.00;;
18867;SDS011;9563;49.240;9.088;2022-11-23T09:40:22;3.10;;;1.67;;
18867;SDS011;9563;49.240;9.088;2022-11-23T09:42:52;7.07;;;1.50;;
18867;SDS011;9563;49.240;9.088;2022-11-23T09:45:29;8.27;;;2.23;;
18867;SDS011;9563;49.240;9.088;2022-11-23T09:48:17;10.40;;;2.60;;
18867;SDS011;9563;49.240;9.088;2022-11-23T09:50:55;8.17;;;1.93;;
18867;SDS011;9563;49.240;9.088;2022-11-23T09:53:29;6.88;;;1.77;;
18867;SDS011;9563;49.240;9.088;2022-11-23T09:56:03;6.53;;;2.20;;
18867;SDS011;9563;49.240;9.088;2022-11-23T09:58:32;8.57;;;2.55;;
18867;SDS011;9563;49.240;9.088;2022-11-23T10:01:05;7.78;;;1.90;;
18867;SDS011;9563;49.240;9.088;2022-11-23T10:03:37;6.47;;;2.38;;
18867;SDS011;9563;49.240;9.088;2022-11-23T10:06:09;6.50;;;3.47;;
18867;SDS011;9563;49.240;9.088;2022-11-23T10:08:45;7.13;;;2.03;;
18867;SDS011;9563;49.240;9.088;2022-11-23T10:11:24;9.05;;;2.30;;
18867;SDS011;9563;49.240;9.088;2022-11-23T10:14:07;8.90;;;2.30;;
18867;SDS011;9563;49.240;9.088;2022-11-23T10:16:45;9.60;;;2.10;;
18867;SDS011;9563;49.240;9.088;2022-11-23T10:19:20;7.45;;;2.20;;
18867;SDS011;9563;49.240;9.088;2022-11-23T10:21:59;6.30;;;1.90;;
18867;SDS011;9563;49.240;9.088;2022-11-23T10:24:36;11.10;;;2.10;;
18867;SDS011;9563;49.240;9.088;2022-11-23T10:27:10;6.68;;;1.73;;
18867;SDS011;9563;49.240;9.088;2022-11-23T10:29:42;6.60;;;1.80;;
18867;SDS011;9563;49.240;9.088;2022-11-23T10:32:14;9.30;;;2.13;;
18867;SDS011;9563;49.240;9.088;2022-11-23T10:34:47;7.25;;;1.60;;
18867;SDS011;9563;49.240;9.088;2022-11-23T10:37:21;12.25;;;2.22;;
18867;SDS011;9563;49.240;9.088;2022-11-23T10:39:49;8.95;;;1.98;;
18867;SDS011;9563;49.240;9.088;2022-11-23T10:42:18;6.47;;;1.90;;
18867;SDS011;9563;49.240;9.088;2022-11-23T10:44:50;10.10;;;2.10;;
18867;SDS011;9563;49.240;9.088;2022-11-23T10:47:32;7.18;;;1.98;;
18867;SDS011;9563;49.240;9.088;2022-11-23T10:50:02;9.65;;;2.60;;
18867;SDS011;9563;49.240;9.088;2022-11-23T10:52:48;15.52;;;3.55;;
18867;SDS011;9563;49.240;9.088;2022-11-23T10:55:18;5.22;;;1.83;;
18867;SDS011;9563;49.240;9.088;2022-11-23T10:57:51;8.20;;;1.80;;
18867;SDS011;9563;49.240;9.088;2022-11-23T11:00:18;9.15;;;2.13;;
18867;SDS011;9563;49.240;9.088;2022-11-23T11:02:47;5.70;;;1.90;;
18867;SDS011;9563;49.240;9.088;2022-11-23T11:05:21;12.43;;;2.22;;
18867;SDS011;9563;49.240;9.088;2022-11-23T11:07:52;9.50;;;2.25;;
18867;SDS011;9563;49.240;9.088;2022-11-23T11:10:31;8.93;;;2.40;;
18867;SDS011;9563;49.240;9.088;2022-11-23T11:13:01;9.98;;;2.17;;
18867;SDS011;9563;49.240;9.088;2022-11-23T11:15:29;7.20;;;2.30;;
18867;SDS011;9563;49.240;9.088;2022-11-23T11:17:56;6.35;;;1.92;;
18867;SDS011;9563;49.240;9.088;2022-11-23T11:20:30;13.00;;;2.08;;
18867;SDS011;9563;49.240;9.088;2022-11-23T11:22:59;11.13;;;2.70;;
18867;SDS011;9563;49.240;9.088;2022-11-23T11:25:30;7.30;;;1.92;;
18867;SDS011;9563;49.240;9.088;2022-11-23T11:27:59;8.45;;;2.03;;
18867;SDS011;9563;49.240;9.088;2022-11-23T11:30:30;7.00;;;2.05;;
18867;SDS011;9563;49.240;9.088;2022-11-23T11:33:05;12.52;;;2.22;;
18867;SDS011;9563;49.240;9.088;2022-11-23T11:35:37;7.13;;;1.70;;
18867;SDS011;9563;49.240;9.088;2022-11-23T11:38:10;8.27;;;1.88;;
18867;SDS011;9563;49.240;9.088;2022-11-23T11:40:45;6.63;;;2.00;;
18867;SDS011;9563;49.240;9.088;2022-11-23T11:43:15;3.88;;;1.73;;
18867;SDS011;9563;49.240;9.088;2022-11-23T11:45:46;7.75;;;2.25;;
18867;SDS011;9563;49.240;9.088;2022-11-23T11:48:16;8.77;;;2.30;;
18867;SDS011;9563;49.240;9.088;2022-11-23T11:50:49;7.30;;;2.25;;
18867;SDS011;9563;49.240;9.088;2022-11-23T11:53:19;10.55;;;2.63;;
18867;SDS011;9563;49.240;9.088;2022-11-23T11:55:52;6.07;;;1.90;;
18867;SDS011;9563;49.240;9.088;2022-11-23T11:58:23;7.03;;;2.10;;
18867;SDS011;9563;49.240;9.088;2022-11-23T12:00:52;4.35;;;1.70;;
18867;SDS011;9563;49.240;9.088;2022-11-23T12:03:26;5.90;;;1.70;;
18867;SDS011;9563;49.240;9.088;2022-11-23T12:06:02;7.35;;;1.95;;
18867;SDS011;9563;49.240;9.088;2022-11-23T12:08:35;7.93;;;1.80;;
18867;SDS011;9563;49.240;9.088;2022-11-23T12:11:12;6.65;;;1.85;;
18867;SDS011;9563;49.240;9.088;2022-11-23T12:13:40;7.88;;;2.00;;
18867;SDS011;9563;49.240;9.088;2022-11-23T12:16:09;9.23;;;2.10;;
18867;SDS011;9563;49.240;9.088;2022-11-23T12:19:02;9.60;;;2.47;;
18867;SDS011;9563;49.240;9.088;2022-11-23T12:21:40;9.32;;;1.63;;
18867;SDS011;9563;49.240;9.088;2022-11-23T12:24:34;4.80;;;1.52;;
18867;SDS011;9563;49.240;9.088;2022-11-23T12:27:24;7.15;;;2.03;;
18867;SDS011;9563;49.240;9.088;2022-11-23T12:30:07;5.15;;;1.65;;
18867;SDS011;9563;49.240;9.088;2022-11-23T12:32:53;7.93;;;1.65;;
18867;SDS011;9563;49.240;9.088;2022-11-23T12:35:38;9.02;;;1.30;;
18867;SDS011;9563;49.240;9.088;2022-11-23T12:38:23;8.85;;;1.60;;
18867;SDS011;9563;49.240;9.088;2022-11-23T12:44:01;6.60;;;1.30;;
18867;SDS011;9563;49.240;9.088;2022-11-23T12:46:41;8.18;;;1.48;;
18867;SDS011;9563;49.240;9.088;2022-11-23T12:49:19;9.50;;;1.80;;
18867;SDS011;9563;49.240;9.088;2022-11-23T12:51:54;6.13;;;1.45;;
18867;SDS011;9563;49.240;9.088;2022-11-23T12:57:19;6.82;;;1.55;;
18867;SDS011;9563;49.240;9.088;2022-11-23T12:59:52;4.70;;;1.40;;
18867;SDS011;9563;49.240;9.088;2022-11-23T13:02:32;4.18;;;1.58;;
18867;SDS011;9563;49.240;9.088;2022-11-23T13:05:25;10.70;;;1.73;;
18867;SDS011;9563;49.240;9.088;2022-11-23T13:08:09;6.28;;;1.33;;
18867;SDS011;9563;49.240;9.088;2022-11-23T13:11:00;7.47;;;1.42;;
18867;SDS011;9563;49.240;9.088;2022-11-23T13:13:44;3.63;;;1.38;;
18867;SDS011;9563;49.240;9.088;2022-11-23T13:19:41;4.55;;;1.48;;
18867;SDS011;9563;49.240;9.088;2022-11-23T13:22:35;11.52;;;1.40;;
18867;SDS011;9563;49.240;9.088;2022-11-23T13:25:18;8.68;;;1.60;;
18867;SDS011;9563;49.240;9.088;2022-11-23T13:27:54;4.65;;;1.27;;
18867;SDS011;9563;49.240;9.088;2022-11-23T13:30:27;7.70;;;1.60;;
18867;SDS011;9563;49.240;9.088;2022-11-23T13:33:00;2.58;;;1.10;;
18867;SDS011;9563;49.240;9.088;2022-11-23T13:38:38;6.63;;;1.45;;
18867;SDS011;9563;49.240;9.088;2022-11-23T13:44:23;6.55;;;1.48;;
18867;SDS011;9563;49.240;9.088;2022-11-23T13:46:55;4.90;;;1.17;;
18867;SDS011;9563;49.240;9.088;2022-11-23T13:49:28;3.67;;;1.10;;
18867;SDS011;9563;49.240;9.088;2022-11-23T13:52:05;3.28;;;0.98;;
18867;SDS011;9563;49.240;9.088;2022-11-23T13:55:02;4.90;;;1.52;;
18867;SDS011;9563;49.240;9.088;2022-11-23T13:57:33;6.65;;;1.05;;
18867;SDS011;9563;49.240;9.088;2022-11-23T14:06:17;2.72;;;0.98;;
18867;SDS011;9563;49.240;9.088;2022-11-23T14:08:50;5.10;;;0.90;;
18867;SDS011;9563;49.240;9.088;2022-11-23T14:11:20;5.32;;;1.10;;
18867;SDS011;9563;49.240;9.088;2022-11-23T14:13:50;2.00;;;1.00;;
18867;SDS011;9563;49.240;9.088;2022-11-23T14:16:26;6.07;;;1.30;;
18867;SDS011;9563;49.240;9.088;2022-11-23T14:19:12;4.28;;;1.25;;
18867;SDS011;9563;49.240;9.088;2022-11-23T14:21:47;2.72;;;0.82;;
18867;SDS011;9563;49.240;9.088;2022-11-23T14:24:43;4.33;;;1.00;;
18867;SDS011;9563;49.240;9.088;2022-11-23T14:27:28;5.67;;;1.20;;
18867;SDS011;9563;49.240;9.088;2022-11-23T14:33:08;7.17;;;1.80;;
18867;SDS011;9563;49.240;9.088;2022-11-23T14:35:45;4.77;;;1.50;;
18867;SDS011;9563;49.240;9.088;2022-11-23T14:38:27;3.90;;;0.80;;
18867;SDS011;9563;49.240;9.088;2022-11-23T14:41:06;1.97;;;0.90;;
18867;SDS011;9563;49.240;9.088;2022-11-23T14:43:35;4.03;;;0.90;;
18867;SDS011;9563;49.240;9.088;2022-11-23T14:46:12;3.57;;;1.00;;
18867;SDS011;9563;49.240;9.088;2022-11-23T14:48:41;3.43;;;1.00;;
18867;SDS011;9563;49.240;9.088;2022-11-23T14:51:10;3.07;;;1.00;;
18867;SDS011;9563;49.240;9.088;2022-11-23T14:53:39;4.03;;;0.90;;
18867;SDS011;9563;49.240;9.088;2022-11-23T14:56:16;3.30;;;1.40;;
18867;SDS011;9563;49.240;9.088;2022-11-23T14:58:51;3.30;;;0.73;;
18867;SDS011;9563;49.240;9.088;2022-11-23T15:01:19;2.93;;;0.70;;
18867;SDS011;9563;49.240;9.088;2022-11-23T15:03:54;3.93;;;1.00;;
18867;SDS011;9563;49.240;9.088;2022-11-23T15:06:23;4.57;;;0.90;;
18867;SDS011;9563;49.240;9.088;2022-11-23T15:08:55;2.57;;;1.20;;
18867;SDS011;9563;49.240;9.088;2022-11-23T15:11:31;2.73;;;0.80;;
18867;SDS011;9563;49.240;9.088;2022-11-23T15:14:01;2.90;;;0.67;;
18867;SDS011;9563;49.240;9.088;2022-11-23T15:16:28;0.80;;;0.67;;
18867;SDS011;9563;49.240;9.088;2022-11-23T15:19:15;3.77;;;1.03;;
18867;SDS011;9563;49.240;9.088;2022-11-23T15:21:43;4.33;;;0.70;;
18867;SDS011;9563;49.240;9.088;2022-11-23T15:24:18;4.80;;;0.93;;
18867;SDS011;9563;49.240;9.088;2022-11-23T15:26:48;3.50;;;0.90;;
18867;SDS011;9563;49.240;9.088;2022-11-23T15:29:29;5.07;;;1.30;;
18867;SDS011;9563;49.240;9.088;2022-11-23T15:31:58;3.07;;;0.80;;
18867;SDS011;9563;49.240;9.088;2022-11-23T15:34:25;3.60;;;0.90;;
18867;SDS011;9563;49.240;9.088;2022-11-23T15:36:53;3.80;;;0.80;;
18867;SDS011;9563;49.240;9.088;2022-11-23T15:39:21;8.07;;;1.43;;
18867;SDS011;9563;49.240;9.088;2022-11-23T15:41:51;3.27;;;1.43;;
18867;SDS011;9563;49.240;9.088;2022-11-23T15:44:22;2.63;;;1.30;;